createdAt,value
2019-05-01T00:01:37.660Z,10.60
2019-05-01T00:04:14.358Z,11.20
2019-05-01T00:06:51.300Z,10.23
2019-05-01T00:09:20.922Z,11.40
2019-05-01T00:11:50.246Z,10.57
2019-05-01T00:14:19.620Z,10.90
2019-05-01T00:16:49.627Z,11.47
2019-05-01T00:19:18.995Z,10.43
2019-05-01T00:21:48.411Z,9.47
2019-05-01T00:24:17.799Z,11.23
2019-05-01T00:26:47.192Z,11.27
2019-05-01T00:29:16.582Z,10.40
2019-05-01T00:31:45.889Z,9.70
2019-05-01T00:34:15.240Z,11.63
2019-05-01T00:36:44.741Z,9.90
2019-05-01T00:39:14.368Z,10.67
2019-05-01T00:41:43.677Z,10.77
2019-05-01T00:44:13.139Z,8.83
2019-05-01T00:46:42.355Z,8.33
2019-05-01T00:49:11.786Z,8.57
2019-05-01T00:51:41.167Z,9.80
2019-05-01T00:54:10.677Z,7.97
2019-05-01T00:56:44.404Z,7.20
2019-05-01T00:59:30.707Z,8.13
2019-05-01T01:02:07.649Z,7.60
2019-05-01T01:04:38.545Z,8.30
2019-05-01T01:07:07.913Z,7.47
2019-05-01T01:09:37.268Z,8.10
2019-05-01T01:12:06.737Z,6.90
2019-05-01T01:14:36.101Z,6.63
2019-05-01T01:17:05.525Z,11.87
2019-05-01T01:19:34.973Z,7.13
2019-05-01T01:22:04.478Z,6.93
2019-05-01T01:24:33.853Z,6.47
2019-05-01T01:27:05.006Z,7.07
2019-05-01T01:29:34.378Z,6.07
2019-05-01T01:32:04.471Z,6.03
2019-05-01T01:34:33.864Z,5.33
2019-05-01T01:37:03.229Z,6.37
2019-05-01T01:39:32.889Z,6.03
2019-05-01T01:42:02.803Z,6.10
2019-05-01T01:44:47.399Z,5.60
2019-05-01T01:47:17.249Z,6.43
2019-05-01T01:49:46.811Z,6.00
2019-05-01T01:52:16.464Z,5.67
2019-05-01T01:54:46.062Z,6.33
2019-05-01T01:57:15.929Z,6.63
2019-05-01T01:59:45.585Z,5.70
2019-05-01T02:02:22.444Z,5.50
2019-05-01T02:04:53.648Z,6.03
2019-05-01T02:07:23.101Z,5.20
2019-05-01T02:09:52.763Z,6.23
2019-05-01T02:12:22.713Z,6.50
2019-05-01T02:14:52.081Z,6.23
2019-05-01T02:17:21.695Z,5.87
2019-05-01T02:19:51.117Z,6.93
2019-05-01T02:22:20.475Z,5.67
2019-05-01T02:24:49.811Z,6.20
2019-05-01T02:27:21.147Z,7.53
2019-05-01T02:29:55.243Z,5.83
2019-05-01T02:32:29.132Z,6.63
2019-05-01T02:35:00.203Z,6.17
2019-05-01T02:37:31.511Z,6.10
2019-05-01T02:40:03.576Z,5.80
2019-05-01T02:42:35.365Z,7.83
2019-05-01T02:45:05.813Z,7.97
2019-05-01T02:47:37.783Z,7.07
2019-05-01T02:50:10.073Z,6.40
2019-05-01T02:52:41.941Z,6.87
2019-05-01T02:55:15.345Z,6.90
2019-05-01T02:57:47.030Z,6.43
2019-05-01T03:00:17.875Z,7.43
2019-05-01T03:02:47.876Z,7.83
2019-05-01T03:05:17.214Z,7.00
2019-05-01T03:07:46.872Z,7.70
2019-05-01T03:10:16.856Z,8.23
2019-05-01T03:12:49.155Z,7.87
2019-05-01T03:15:20.955Z,7.50
2019-05-01T03:17:52.565Z,8.07
2019-05-01T03:20:24.469Z,8.67
2019-05-01T03:23:12.436Z,8.63
2019-05-01T03:25:42.691Z,9.17
2019-05-01T03:28:12.922Z,7.93
2019-05-01T03:30:42.326Z,8.07
2019-05-01T03:33:11.676Z,8.83
2019-05-01T03:35:41.550Z,9.43
2019-05-01T03:38:11.398Z,8.53
2019-05-01T03:40:41.924Z,8.13
2019-05-01T03:43:12.899Z,9.63
2019-05-01T03:45:43.458Z,8.50
2019-05-01T03:48:13.134Z,8.27
2019-05-01T03:50:46.490Z,8.03
2019-05-01T03:53:14.046Z,7.77
2019-05-01T03:55:43.427Z,9.03
2019-05-01T03:58:12.812Z,8.73
2019-05-01T04:00:46.689Z,9.30
2019-05-01T04:03:23.524Z,10.20
2019-05-01T04:05:53.084Z,9.90
2019-05-01T04:08:22.552Z,9.57
2019-05-01T04:10:52.340Z,10.13
2019-05-01T04:13:21.865Z,9.50
2019-05-01T04:15:52.973Z,12.67
2019-05-01T04:18:22.689Z,11.20
2019-05-01T04:20:52.475Z,10.37
2019-05-01T04:23:22.249Z,12.73
2019-05-01T04:25:52.156Z,15.57
2019-05-01T04:28:39.608Z,13.60
2019-05-01T04:31:23.285Z,11.33
2019-05-01T04:33:54.893Z,10.70
2019-05-01T04:36:34.801Z,13.33
2019-05-01T04:39:06.693Z,10.30
2019-05-01T04:41:37.042Z,10.77
2019-05-01T04:44:06.952Z,8.83
2019-05-01T04:46:36.704Z,9.53
2019-05-01T04:49:06.457Z,10.90
2019-05-01T04:51:36.487Z,10.30
2019-05-01T04:54:06.033Z,12.37
2019-05-01T04:56:35.798Z,10.03
2019-05-01T04:59:05.681Z,10.00
2019-05-01T05:01:57.061Z,11.63
2019-05-01T05:04:27.091Z,11.37
2019-05-01T05:06:56.748Z,12.03
2019-05-01T05:09:39.921Z,10.60
2019-05-01T05:12:11.333Z,11.83
2019-05-01T05:14:43.407Z,12.73
2019-05-01T05:17:14.543Z,11.40
2019-05-01T05:19:44.124Z,13.60
2019-05-01T05:22:16.448Z,11.90
2019-05-01T05:24:45.850Z,12.80
2019-05-01T05:27:16.361Z,16.00
2019-05-01T05:29:47.900Z,14.60
2019-05-01T05:32:19.220Z,15.27
2019-05-01T05:34:50.479Z,14.47
2019-05-01T05:37:22.194Z,17.03
2019-05-01T05:39:52.940Z,17.57
2019-05-01T05:42:22.440Z,17.00
2019-05-01T05:44:51.816Z,16.63
2019-05-01T05:47:21.467Z,18.20
2019-05-01T05:49:51.660Z,17.43
2019-05-01T05:52:25.786Z,18.77
2019-05-01T05:55:08.140Z,19.17
2019-05-01T05:57:56.104Z,17.80
2019-05-01T06:00:44.595Z,15.07
2019-05-01T06:03:35.172Z,17.60
2019-05-01T06:06:17.793Z,20.20
2019-05-01T06:08:50.157Z,17.57
2019-05-01T06:11:40.096Z,17.40
2019-05-01T06:14:31.350Z,18.23
2019-05-01T06:17:07.533Z,17.80
2019-05-01T06:19:49.681Z,19.67
2019-05-01T06:22:20.641Z,18.20
2019-05-01T06:25:21.487Z,17.37
2019-05-01T06:27:44.778Z,19.53
2019-05-01T06:30:12.764Z,17.77
2019-05-01T06:32:42.472Z,15.87
2019-05-01T06:35:11.945Z,18.57
2019-05-01T06:38:02.247Z,17.63
2019-05-01T06:40:40.787Z,17.60
2019-05-01T06:43:27.258Z,21.30
2019-05-01T06:46:13.722Z,17.97
2019-05-01T06:48:53.376Z,19.57
2019-05-01T06:51:35.230Z,19.43
2019-05-01T06:54:11.325Z,20.83
2019-05-01T06:56:42.203Z,23.03
2019-05-01T06:59:12.640Z,23.97
2019-05-01T07:01:42.384Z,21.90
2019-05-01T07:04:14.184Z,26.43
2019-05-01T07:06:43.564Z,23.17
2019-05-01T07:09:17.286Z,24.90
2019-05-01T07:11:47.521Z,23.00
2019-05-01T07:14:17.605Z,26.90
2019-05-01T07:16:47.356Z,22.50
2019-05-01T07:19:18.326Z,24.97
2019-05-01T07:21:48.008Z,26.63
2019-05-01T07:24:17.811Z,27.63
2019-05-01T07:26:48.105Z,26.23
2019-05-01T07:29:22.647Z,26.20
2019-05-01T07:31:52.129Z,27.80
2019-05-01T07:34:25.789Z,29.80
2019-05-01T07:36:52.815Z,27.90
2019-05-01T07:39:22.336Z,27.80
2019-05-01T07:41:52.007Z,27.67
2019-05-01T07:44:35.181Z,28.90
2019-05-01T07:47:12.130Z,27.83
2019-05-01T07:49:57.093Z,28.87
2019-05-01T07:52:28.140Z,27.87
2019-05-01T07:54:58.219Z,29.67
2019-05-01T07:57:28.485Z,27.40
2019-05-01T08:00:03.109Z,28.00
2019-05-01T08:02:30.978Z,26.67
2019-05-01T08:05:04.946Z,26.93
2019-05-01T08:07:33.601Z,28.60
2019-05-01T08:10:03.024Z,29.80
2019-05-01T08:12:32.463Z,38.83
2019-05-01T08:15:02.860Z,31.90
2019-05-01T08:17:33.864Z,26.57
2019-05-01T08:20:21.076Z,27.87
2019-05-01T08:22:50.523Z,29.03
2019-05-01T08:25:19.945Z,27.23
2019-05-01T08:27:58.131Z,29.13
2019-05-01T08:30:32.170Z,26.43
2019-05-01T08:33:03.114Z,28.80
2019-05-01T08:35:36.518Z,27.00
2019-05-01T08:38:04.190Z,30.83
2019-05-01T08:40:33.686Z,29.00
2019-05-01T08:43:03.068Z,28.10
2019-05-01T08:45:50.626Z,27.50
2019-05-01T08:48:35.857Z,27.43
2019-05-01T08:51:05.294Z,26.20
2019-05-01T08:53:34.663Z,26.00
2019-05-01T08:56:04.122Z,27.10
2019-05-01T08:58:38.336Z,29.70
2019-05-01T09:01:10.768Z,29.50
2019-05-01T09:03:42.250Z,27.43
2019-05-01T09:06:13.979Z,27.23
2019-05-01T09:08:46.553Z,26.80
2019-05-01T09:11:15.913Z,26.87
2019-05-01T09:13:45.311Z,26.50
2019-05-01T09:16:14.858Z,26.53
2019-05-01T09:18:44.215Z,27.60
2019-05-01T09:21:13.751Z,28.40
2019-05-01T09:23:46.113Z,26.73
2019-05-01T09:26:18.992Z,27.60
2019-05-01T09:28:53.001Z,27.53
2019-05-01T09:31:24.012Z,27.80
2019-05-01T09:33:53.602Z,27.97
2019-05-01T09:36:23.116Z,27.67
2019-05-01T09:38:52.406Z,27.80
2019-05-01T09:41:21.801Z,27.40
2019-05-01T09:43:51.460Z,27.17
2019-05-01T09:46:22.763Z,27.83
2019-05-01T09:48:52.330Z,29.60
2019-05-01T09:51:29.731Z,28.50
2019-05-01T09:54:05.703Z,27.70
2019-05-01T09:56:35.036Z,27.03
2019-05-01T09:59:04.517Z,28.30
2019-05-01T10:01:34.281Z,27.47
2019-05-01T10:04:05.583Z,26.57
2019-05-01T10:06:34.745Z,26.10
2019-05-01T10:09:07.208Z,26.40
2019-05-01T10:11:40.596Z,28.40
2019-05-01T10:14:09.175Z,26.67
2019-05-01T10:16:38.574Z,26.83
2019-05-01T10:19:07.885Z,27.63
2019-05-01T10:21:37.254Z,26.50
2019-05-01T10:24:06.602Z,27.50
2019-05-01T10:26:37.621Z,27.37
2019-05-01T10:29:08.854Z,27.60
2019-05-01T10:31:56.203Z,27.07
2019-05-01T10:34:27.171Z,27.13
2019-05-01T10:36:56.607Z,27.13
2019-05-01T10:39:26.400Z,28.00
2019-05-01T10:41:55.739Z,27.63
2019-05-01T10:44:25.178Z,28.70
2019-05-01T10:46:54.567Z,29.63
2019-05-01T10:49:23.939Z,29.57
2019-05-01T10:51:53.307Z,29.27
2019-05-01T10:54:22.718Z,32.20
2019-05-01T10:56:52.259Z,29.03
2019-05-01T10:59:21.675Z,28.10
2019-05-01T11:01:55.068Z,27.47
2019-05-01T11:04:24.929Z,28.97
2019-05-01T11:06:54.313Z,27.63
2019-05-01T11:09:23.818Z,28.93
2019-05-01T11:11:53.305Z,29.23
2019-05-01T11:14:22.679Z,28.73
2019-05-01T11:16:52.193Z,27.30
2019-05-01T11:19:21.670Z,31.63
2019-05-01T11:21:53.427Z,28.53
2019-05-01T11:24:22.864Z,27.47
2019-05-01T11:26:52.329Z,25.63
2019-05-01T11:29:21.641Z,26.43
2019-05-01T11:31:58.753Z,26.20
2019-05-01T11:34:29.758Z,26.33
2019-05-01T11:37:06.893Z,26.67
2019-05-01T11:39:40.851Z,23.67
2019-05-01T11:42:13.653Z,24.53
2019-05-01T11:44:43.034Z,26.80
2019-05-01T11:47:12.527Z,24.20
2019-05-01T11:49:42.005Z,22.93
2019-05-01T11:52:11.309Z,21.67
2019-05-01T11:54:40.684Z,22.90
2019-05-01T11:57:10.102Z,22.07
2019-05-01T11:59:39.408Z,21.80
2019-05-01T12:02:08.770Z,22.30
2019-05-01T12:04:38.181Z,22.10
2019-05-01T12:07:07.536Z,22.03
2019-05-01T12:09:36.910Z,21.70
2019-05-01T12:12:07.965Z,22.87
2019-05-01T12:14:37.250Z,22.07
2019-05-01T12:17:08.181Z,21.73
2019-05-01T12:19:37.529Z,22.40
2019-05-01T12:22:06.960Z,22.10
2019-05-01T12:24:36.353Z,23.07
2019-05-01T12:27:05.961Z,23.30
2019-05-01T12:29:35.383Z,25.33
2019-05-01T12:32:04.856Z,26.07
2019-05-01T12:34:34.357Z,23.03
2019-05-01T12:37:17.255Z,22.77
2019-05-01T12:39:47.700Z,21.43
2019-05-01T12:42:18.722Z,21.53
2019-05-01T12:44:48.084Z,21.23
2019-05-01T12:47:19.131Z,20.37
2019-05-01T12:49:50.148Z,23.27
2019-05-01T12:52:37.613Z,22.30
2019-05-01T12:55:26.011Z,22.40
2019-05-01T12:57:55.573Z,22.90
2019-05-01T13:00:50.443Z,21.87
2019-05-01T13:03:19.853Z,21.27
2019-05-01T13:05:49.157Z,22.03
2019-05-01T13:08:18.533Z,22.83
2019-05-01T13:10:49.339Z,26.90
2019-05-01T13:13:18.664Z,28.10
2019-05-01T13:15:48.057Z,33.57
2019-05-01T13:18:17.440Z,29.47
2019-05-01T13:20:46.816Z,29.97
2019-05-01T13:23:16.165Z,27.77
2019-05-01T13:25:46.243Z,35.73
2019-05-01T13:28:17.259Z,31.40
2019-05-01T13:30:48.458Z,35.37
2019-05-01T13:33:17.929Z,30.17
2019-05-01T13:35:47.222Z,30.37
2019-05-01T13:38:16.586Z,32.33
2019-05-01T13:40:46.832Z,34.17
2019-05-01T13:43:16.063Z,29.83
2019-05-01T13:45:45.476Z,14.93
2019-05-01T13:48:14.812Z,10.33
2019-05-01T13:50:44.187Z,11.50
2019-05-01T13:53:13.571Z,7.87
2019-05-01T13:55:43.077Z,10.07
2019-05-01T13:58:12.457Z,13.10
2019-05-01T14:00:41.828Z,12.30
2019-05-01T14:03:11.464Z,12.50
2019-05-01T14:05:40.914Z,10.70
2019-05-01T14:08:09.423Z,10.00
2019-05-01T14:10:38.632Z,8.60
2019-05-01T14:13:07.921Z,6.73
2019-05-01T14:15:37.284Z,5.70
2019-05-01T14:18:06.706Z,6.70
2019-05-01T14:20:37.701Z,5.87
2019-05-01T14:23:26.272Z,30.53
2019-05-01T14:26:08.567Z,7.63
2019-05-01T14:28:38.003Z,6.37
2019-05-01T14:31:07.612Z,9.03
2019-05-01T14:33:37.000Z,7.70
2019-05-01T14:36:06.989Z,10.67
2019-05-01T14:38:36.378Z,8.20
2019-05-01T14:41:05.821Z,8.37
2019-05-01T14:43:35.211Z,11.00
2019-05-01T14:46:04.685Z,10.17
2019-05-01T14:48:48.257Z,9.00
2019-05-01T14:51:17.605Z,9.57
2019-05-01T14:53:47.095Z,9.10
2019-05-01T14:56:16.470Z,8.93
2019-05-01T14:58:45.832Z,9.10
2019-05-01T15:01:15.210Z,8.20
2019-05-01T15:03:44.700Z,11.70
2019-05-01T15:06:14.048Z,9.20
2019-05-01T15:08:43.346Z,9.33
2019-05-01T15:11:12.756Z,12.63
2019-05-01T15:13:43.704Z,11.87
2019-05-01T15:16:26.761Z,16.63
2019-05-01T15:19:09.752Z,14.93
2019-05-01T15:21:39.236Z,10.23
2019-05-01T15:24:08.611Z,9.63
2019-05-01T15:26:38.038Z,8.20
2019-05-01T15:29:07.440Z,10.17
2019-05-01T15:31:36.954Z,10.67
2019-05-01T15:34:06.263Z,9.47
2019-05-01T15:36:35.862Z,12.47
2019-05-01T15:39:09.128Z,9.67
2019-05-01T15:41:56.724Z,9.13
2019-05-01T15:44:27.684Z,9.53
2019-05-01T15:46:57.033Z,9.27
2019-05-01T15:49:26.490Z,11.20
2019-05-01T15:51:56.014Z,19.17
2019-05-01T15:54:25.383Z,19.83
2019-05-01T15:56:55.008Z,15.30
2019-05-01T15:59:24.433Z,14.00
2019-05-01T16:01:53.929Z,13.40
2019-05-01T16:04:23.465Z,12.40
2019-05-01T16:06:52.966Z,11.03
2019-05-01T16:09:22.419Z,10.20
2019-05-01T16:12:09.493Z,10.07
2019-05-01T16:14:39.340Z,8.77
2019-05-01T16:17:08.686Z,8.30
2019-05-01T16:19:38.016Z,10.77
2019-05-01T16:22:07.484Z,14.40
2019-05-01T16:24:36.854Z,13.73
2019-05-01T16:27:06.192Z,26.77
2019-05-01T16:29:35.598Z,20.80
2019-05-01T16:32:05.456Z,16.00
2019-05-01T16:34:35.609Z,15.33
2019-05-01T16:37:05.098Z,16.67
2019-05-01T16:39:36.141Z,19.03
2019-05-01T16:42:05.595Z,18.43
2019-05-01T16:44:34.985Z,18.57
2019-05-01T16:47:04.548Z,18.60
2019-05-01T16:49:33.940Z,16.13
2019-05-01T16:52:03.343Z,18.73
2019-05-01T16:54:32.726Z,14.50
2019-05-01T16:57:02.100Z,22.03
2019-05-01T16:59:31.516Z,16.37
2019-05-01T17:02:02.802Z,19.43
2019-05-01T17:04:36.731Z,14.33
2019-05-01T17:07:16.601Z,13.83
2019-05-01T17:10:02.715Z,21.33
2019-05-01T17:12:34.139Z,41.07
2019-05-01T17:15:03.594Z,35.60
2019-05-01T17:17:33.861Z,70.00
2019-05-01T17:20:03.529Z,58.00
2019-05-01T17:22:32.803Z,57.27
2019-05-01T17:25:02.563Z,36.93
2019-05-01T17:27:31.927Z,38.40
2019-05-01T17:30:01.418Z,37.73
2019-05-01T17:32:30.786Z,31.47
2019-05-01T17:35:01.980Z,28.73
2019-05-01T17:37:31.371Z,30.23
2019-05-01T17:40:00.770Z,30.97
2019-05-01T17:42:33.022Z,21.77
2019-05-01T17:45:01.226Z,26.47
2019-05-01T17:47:30.672Z,25.77
2019-05-01T17:49:59.974Z,43.37
2019-05-01T17:52:29.436Z,38.63
2019-05-01T17:55:01.238Z,31.20
2019-05-01T17:57:30.415Z,36.57
2019-05-01T18:00:01.513Z,42.17
2019-05-01T18:02:51.055Z,31.90
2019-05-01T18:05:22.024Z,41.20
2019-05-01T18:07:51.506Z,31.53
2019-05-01T18:10:20.895Z,35.50
2019-05-01T18:12:50.298Z,32.37
2019-05-01T18:15:19.870Z,29.13
2019-05-01T18:17:49.349Z,28.90
2019-05-01T18:20:19.562Z,27.13
2019-05-01T18:23:08.512Z,28.43
2019-05-01T18:25:42.305Z,23.37
2019-05-01T18:28:19.415Z,33.67
2019-05-01T18:30:51.619Z,32.60
2019-05-01T18:33:22.047Z,34.53
2019-05-01T18:35:51.606Z,37.03
2019-05-01T18:38:28.660Z,26.37
2019-05-01T18:40:59.679Z,37.97
2019-05-01T18:43:32.240Z,30.77
2019-05-01T18:46:01.083Z,32.53
2019-05-01T18:48:30.468Z,29.53
2019-05-01T18:50:59.870Z,31.70
2019-05-01T18:53:29.302Z,30.03
2019-05-01T18:56:01.474Z,32.40
2019-05-01T18:58:31.479Z,51.77
2019-05-01T19:01:03.943Z,32.13
2019-05-01T19:03:32.264Z,36.07
2019-05-01T19:06:01.801Z,37.47
2019-05-01T19:08:31.215Z,28.80
2019-05-01T19:11:11.786Z,27.03
2019-05-01T19:13:32.148Z,23.37
2019-05-01T19:16:03.437Z,30.23
2019-05-01T19:18:32.683Z,26.17
2019-05-01T19:21:02.060Z,25.70
2019-05-01T19:23:33.219Z,26.03
2019-05-01T19:26:06.463Z,26.10
2019-05-01T19:28:34.289Z,22.57
2019-05-01T19:31:03.849Z,22.90
2019-05-01T19:33:33.255Z,26.00
2019-05-01T19:36:08.347Z,26.40
2019-05-01T19:38:34.787Z,23.40
2019-05-01T19:41:08.908Z,27.30
2019-05-01T19:43:40.750Z,24.93
2019-05-01T19:46:08.263Z,25.30
2019-05-01T19:48:37.650Z,25.47
2019-05-01T19:51:07.046Z,25.17
2019-05-01T19:53:36.449Z,26.00
2019-05-01T19:56:06.027Z,27.90
2019-05-01T19:58:35.439Z,33.10
2019-05-01T20:01:06.125Z,29.03
2019-05-01T20:03:36.775Z,25.60
2019-05-01T20:06:08.203Z,24.00
2019-05-01T20:08:37.920Z,31.57
2019-05-01T20:11:09.517Z,24.70
2019-05-01T20:13:38.457Z,41.37
2019-05-01T20:16:09.260Z,24.47
2019-05-01T20:18:38.902Z,23.37
2019-05-01T20:21:08.456Z,24.93
2019-05-01T20:23:37.796Z,25.00
2019-05-01T20:26:08.181Z,26.70
2019-05-01T20:28:37.571Z,22.57
2019-05-01T20:31:07.131Z,26.37
2019-05-01T20:33:38.921Z,25.47
2019-05-01T20:36:07.572Z,23.27
2019-05-01T20:38:36.989Z,25.50
2019-05-01T20:41:10.437Z,24.13
2019-05-01T20:43:38.126Z,23.77
2019-05-01T20:46:08.584Z,27.27
2019-05-01T20:48:37.957Z,26.33
2019-05-01T20:51:07.373Z,28.53
2019-05-01T20:53:36.749Z,27.70
2019-05-01T20:56:07.759Z,23.47
2019-05-01T20:58:37.211Z,26.53
2019-05-01T21:01:06.747Z,20.77
2019-05-01T21:03:37.773Z,19.77
2019-05-01T21:06:09.199Z,22.80
2019-05-01T21:08:46.539Z,25.03
2019-05-01T21:11:17.777Z,26.47
2019-05-01T21:13:47.155Z,23.97
2019-05-01T21:16:17.825Z,27.60
2019-05-01T21:18:47.223Z,23.00
2019-05-01T21:21:16.631Z,22.33
2019-05-01T21:23:48.183Z,27.03
2019-05-01T21:26:17.146Z,23.73
2019-05-01T21:28:46.529Z,19.63
2019-05-01T21:31:15.898Z,18.83
2019-05-01T21:33:50.259Z,22.90
2019-05-01T21:36:16.404Z,19.60
2019-05-01T21:38:45.700Z,18.47
2019-05-01T21:41:16.942Z,19.93
2019-05-01T21:43:46.127Z,20.97
2019-05-01T21:46:15.686Z,17.63
2019-05-01T21:48:45.147Z,23.80
2019-05-01T21:51:14.558Z,22.37
2019-05-01T21:53:46.377Z,21.23
2019-05-01T21:56:15.184Z,25.20
2019-05-01T21:58:45.236Z,19.70
2019-05-01T22:01:14.852Z,21.43
2019-05-01T22:03:44.256Z,19.87
2019-05-01T22:06:15.420Z,19.67
2019-05-01T22:08:44.654Z,19.07
2019-05-01T22:11:13.953Z,18.53
2019-05-01T22:13:43.490Z,22.33
2019-05-01T22:16:18.482Z,22.50
2019-05-01T22:19:02.138Z,19.93
2019-05-01T22:21:41.973Z,19.10
2019-05-01T22:24:13.057Z,20.07
2019-05-01T22:26:44.069Z,18.77
2019-05-01T22:29:15.101Z,23.00
2019-05-01T22:32:02.282Z,18.87
2019-05-01T22:34:36.451Z,17.63
2019-05-01T22:37:05.968Z,16.30
2019-05-01T22:39:37.003Z,20.27
2019-05-01T22:42:06.498Z,16.90
2019-05-01T22:44:35.949Z,22.13
2019-05-01T22:47:10.247Z,19.03
2019-05-01T22:49:37.535Z,18.40
2019-05-01T22:52:06.896Z,18.53
2019-05-01T22:54:36.270Z,17.77
2019-05-01T22:57:05.673Z,17.43
2019-05-01T22:59:35.118Z,18.23
2019-05-01T23:02:06.556Z,20.10
2019-05-01T23:04:35.959Z,21.73
2019-05-01T23:07:05.415Z,19.37
2019-05-01T23:09:35.182Z,20.27
2019-05-01T23:12:04.583Z,17.07
2019-05-01T23:14:34.141Z,19.97
2019-05-01T23:17:11.287Z,17.50
2019-05-01T23:19:40.589Z,17.87
2019-05-01T23:22:10.223Z,18.13
2019-05-01T23:24:39.646Z,19.63
2019-05-01T23:27:09.042Z,17.67
2019-05-01T23:29:38.337Z,19.70
2019-05-01T23:32:07.905Z,22.40
2019-05-01T23:34:37.279Z,24.83
2019-05-01T23:37:06.654Z,23.57
2019-05-01T23:39:40.433Z,24.20
2019-05-01T23:42:07.057Z,25.00
2019-05-01T23:44:38.147Z,32.73
2019-05-01T23:47:08.404Z,40.90
2019-05-01T23:49:37.714Z,27.73
2019-05-01T23:52:07.163Z,29.27
2019-05-01T23:54:36.568Z,25.07
2019-05-01T23:57:05.955Z,24.40
2019-05-01T23:59:35.424Z,24.17
